createdAt,value
2023-05-05T00:01:25.212Z,16.87
2023-05-05T00:03:52.267Z,16.85
2023-05-05T00:06:19.015Z,16.79
2023-05-05T00:08:46.316Z,16.77
2023-05-05T00:11:13.031Z,16.72
2023-05-05T00:13:39.992Z,16.69
2023-05-05T00:16:07.008Z,16.72
2023-05-05T00:18:33.937Z,16.74
2023-05-05T00:21:01.147Z,16.72
2023-05-05T00:23:36.467Z,16.67
2023-05-05T00:26:03.195Z,16.70
2023-05-05T00:28:30.039Z,16.74
2023-05-05T00:31:00.602Z,16.70
2023-05-05T00:33:27.777Z,16.70
2023-05-05T00:35:54.417Z,16.66
2023-05-05T00:38:21.031Z,16.69
2023-05-05T00:40:47.677Z,16.69
2023-05-05T00:43:14.353Z,16.66
2023-05-05T00:45:43.747Z,16.69
2023-05-05T00:48:11.068Z,16.74
2023-05-05T00:50:38.275Z,16.66
2023-05-05T00:53:06.796Z,16.67
2023-05-05T00:55:34.733Z,16.68
2023-05-05T00:58:03.258Z,16.68
2023-05-05T01:00:30.204Z,16.73
2023-05-05T01:02:57.667Z,16.74
2023-05-05T01:05:27.004Z,16.72
2023-05-05T01:08:13.196Z,16.80
2023-05-05T01:10:49.096Z,16.74
2023-05-05T01:13:45.269Z,16.79
2023-05-05T01:16:20.831Z,16.82
2023-05-05T01:19:04.292Z,16.82
2023-05-05T01:21:38.612Z,16.80
2023-05-05T01:24:39.008Z,16.77
2023-05-05T01:27:30.126Z,16.74
2023-05-05T01:30:15.519Z,16.74
2023-05-05T01:32:55.373Z,16.82
2023-05-05T01:35:43.783Z,16.82
2023-05-05T01:38:21.221Z,16.82
2023-05-05T01:41:01.873Z,16.83
2023-05-05T01:43:33.785Z,16.84
2023-05-05T01:46:02.589Z,16.83
2023-05-05T01:48:33.513Z,16.83
2023-05-05T01:51:03.149Z,16.85
2023-05-05T01:53:31.397Z,16.66
2023-05-05T01:55:59.094Z,16.84
2023-05-05T01:58:27.015Z,16.91
2023-05-05T02:00:56.912Z,16.89
2023-05-05T02:03:25.826Z,16.85
2023-05-05T02:05:53.926Z,16.81
2023-05-05T02:08:21.455Z,16.84
2023-05-05T02:10:50.606Z,16.84
2023-05-05T02:13:20.333Z,16.84
2023-05-05T02:15:47.419Z,16.82
2023-05-05T02:18:14.522Z,16.79
2023-05-05T02:20:41.748Z,16.78
2023-05-05T02:23:08.686Z,16.79
2023-05-05T02:25:42.331Z,16.77
2023-05-05T02:28:18.377Z,16.75
2023-05-05T02:30:55.918Z,16.77
2023-05-05T02:33:25.319Z,16.84
2023-05-05T02:35:54.001Z,16.86
2023-05-05T02:38:27.954Z,16.84
2023-05-05T02:41:00.595Z,16.82
2023-05-05T02:43:31.506Z,16.77
2023-05-05T02:45:58.588Z,16.77
2023-05-05T02:48:26.233Z,16.74
2023-05-05T02:50:54.262Z,16.70
2023-05-05T02:53:29.694Z,16.73
2023-05-05T02:56:18.338Z,16.73
2023-05-05T02:59:04.139Z,16.70
2023-05-05T03:01:54.279Z,16.69
2023-05-05T03:04:34.955Z,16.64
2023-05-05T03:07:11.001Z,16.57
2023-05-05T03:09:50.345Z,16.69
2023-05-05T03:12:22.116Z,16.67
2023-05-05T03:15:00.783Z,16.62
2023-05-05T03:17:31.812Z,16.66
2023-05-05T03:20:02.252Z,16.62
2023-05-05T03:22:38.324Z,16.74
2023-05-05T03:25:08.651Z,16.74
2023-05-05T03:27:35.473Z,16.73
2023-05-05T03:30:02.566Z,16.74
2023-05-05T03:32:31.820Z,16.70
2023-05-05T03:34:58.594Z,16.68
2023-05-05T03:37:30.503Z,16.59
2023-05-05T03:39:57.459Z,16.67
2023-05-05T03:42:24.148Z,16.60
2023-05-05T03:44:53.790Z,16.66
2023-05-05T03:47:24.599Z,16.66
2023-05-05T03:49:53.306Z,16.67
2023-05-05T03:52:19.915Z,16.63
2023-05-05T03:54:46.742Z,16.59
2023-05-05T03:57:13.425Z,16.55
2023-05-05T03:59:40.992Z,16.55
2023-05-05T04:02:08.609Z,16.53
2023-05-05T04:04:35.804Z,16.50
2023-05-05T04:07:02.836Z,16.53
2023-05-05T04:09:29.462Z,16.54
2023-05-05T04:11:56.385Z,16.52
2023-05-05T04:14:23.072Z,16.52
2023-05-05T04:16:51.182Z,16.57
2023-05-05T04:19:18.565Z,16.57
2023-05-05T04:21:45.540Z,16.53
2023-05-05T04:24:12.765Z,16.48
2023-05-05T04:26:39.494Z,16.48
2023-05-05T04:29:06.814Z,16.49
2023-05-05T04:31:33.776Z,16.47
2023-05-05T04:34:00.969Z,16.47
2023-05-05T04:36:27.582Z,16.49
2023-05-05T04:38:54.732Z,16.52
2023-05-05T04:41:21.741Z,16.55
2023-05-05T04:43:48.944Z,16.53
2023-05-05T04:46:15.819Z,16.58
2023-05-05T04:48:42.750Z,16.63
2023-05-05T04:51:09.475Z,16.68
2023-05-05T04:53:37.319Z,16.66
2023-05-05T04:56:04.139Z,16.70
2023-05-05T04:58:31.274Z,16.76
2023-05-05T05:00:58.572Z,16.79
2023-05-05T05:03:25.447Z,16.75
2023-05-05T05:05:53.192Z,16.78
2023-05-05T05:08:19.971Z,16.83
2023-05-05T05:10:46.919Z,16.80
2023-05-05T05:13:13.795Z,16.82
2023-05-05T05:15:40.776Z,16.85
2023-05-05T05:18:07.807Z,16.85
2023-05-05T05:20:34.486Z,16.89
2023-05-05T05:23:04.615Z,16.93
2023-05-05T05:25:34.819Z,16.91
2023-05-05T05:28:10.219Z,16.88
2023-05-05T05:30:52.672Z,16.92
2023-05-05T05:33:19.889Z,16.96
2023-05-05T05:35:47.147Z,17.00
2023-05-05T05:38:15.119Z,16.99
2023-05-05T05:40:42.339Z,16.99
2023-05-05T05:43:09.123Z,16.98
2023-05-05T05:45:37.583Z,17.00
2023-05-05T05:48:05.947Z,17.03
2023-05-05T05:50:32.948Z,17.06
2023-05-05T05:52:59.767Z,17.08
2023-05-05T05:55:27.178Z,17.11
2023-05-05T05:57:54.453Z,16.98
2023-05-05T06:00:21.327Z,17.06
2023-05-05T06:02:55.005Z,17.11
2023-05-05T06:05:25.449Z,17.16
2023-05-05T06:07:52.446Z,17.27
2023-05-05T06:10:28.062Z,17.29
2023-05-05T06:13:03.164Z,17.38
2023-05-05T06:15:31.531Z,17.43
2023-05-05T06:17:59.500Z,17.38
2023-05-05T06:20:26.590Z,17.33
2023-05-05T06:22:54.466Z,17.41
2023-05-05T06:25:22.703Z,17.42
2023-05-05T06:27:50.271Z,17.47
2023-05-05T06:30:17.740Z,17.50
2023-05-05T06:32:44.383Z,17.55
2023-05-05T06:35:11.148Z,17.59
2023-05-05T06:37:37.978Z,17.63
2023-05-05T06:40:05.468Z,17.64
2023-05-05T06:42:32.480Z,17.70
2023-05-05T06:45:00.265Z,17.72
2023-05-05T06:47:26.916Z,17.73
2023-05-05T06:49:53.814Z,17.72
2023-05-05T06:52:22.628Z,17.72
2023-05-05T06:54:49.314Z,17.78
2023-05-05T06:57:16.113Z,17.76
2023-05-05T06:59:42.821Z,17.81
2023-05-05T07:02:09.771Z,17.81
2023-05-05T07:04:36.610Z,17.78
2023-05-05T07:07:03.239Z,17.79
2023-05-05T07:09:29.934Z,17.84
2023-05-05T07:11:56.666Z,17.88
2023-05-05T07:14:24.499Z,17.88
2023-05-05T07:16:51.530Z,17.93
2023-05-05T07:19:18.409Z,17.99
2023-05-05T07:24:11.737Z,18.12
2023-05-05T07:26:38.774Z,18.14
2023-05-05T07:29:05.575Z,18.14
2023-05-05T07:31:32.322Z,18.14
2023-05-05T07:33:59.065Z,18.16
2023-05-05T07:36:27.813Z,18.14
2023-05-05T07:38:54.862Z,18.20
2023-05-05T07:41:21.587Z,18.20
2023-05-05T07:43:48.352Z,18.24
2023-05-05T07:46:15.219Z,18.27
2023-05-05T07:48:42.226Z,18.24
2023-05-05T07:51:09.497Z,18.23
2023-05-05T07:53:36.987Z,18.29
2023-05-05T07:56:03.981Z,18.41
2023-05-05T07:58:30.910Z,18.46
2023-05-05T08:00:57.548Z,18.50
2023-05-05T08:03:24.897Z,18.57
2023-05-05T08:05:54.972Z,18.58
2023-05-05T08:08:24.822Z,18.59
2023-05-05T08:10:53.212Z,18.53
2023-05-05T08:13:20.320Z,18.62
2023-05-05T08:15:47.437Z,18.62
2023-05-05T08:18:14.380Z,18.70
2023-05-05T08:20:41.310Z,18.74
2023-05-05T08:23:07.965Z,18.78
2023-05-05T08:25:34.568Z,18.84
2023-05-05T08:28:01.256Z,18.87
2023-05-05T08:30:28.150Z,18.91
2023-05-05T08:32:55.189Z,18.98
2023-05-05T08:35:22.165Z,18.99
2023-05-05T08:37:48.754Z,19.07
2023-05-05T08:40:15.681Z,19.18
2023-05-05T08:42:42.550Z,19.23
2023-05-05T08:45:10.791Z,19.26
2023-05-05T08:47:38.956Z,19.28
2023-05-05T08:50:06.348Z,19.26
2023-05-05T08:52:41.050Z,19.33
2023-05-05T08:55:10.629Z,19.42
2023-05-05T08:57:45.927Z,19.52
2023-05-05T09:00:13.172Z,19.58
2023-05-05T09:02:42.850Z,19.70
2023-05-05T09:05:10.169Z,19.71
2023-05-05T09:07:38.304Z,19.71
2023-05-05T09:10:05.765Z,19.79
2023-05-05T09:12:32.862Z,19.83
2023-05-05T09:15:03.491Z,19.94
2023-05-05T09:17:30.459Z,20.00
2023-05-05T09:20:04.449Z,20.04
2023-05-05T09:22:39.030Z,20.17
2023-05-05T09:25:07.692Z,20.36
2023-05-05T09:27:48.693Z,20.39
2023-05-05T09:30:18.019Z,20.45
2023-05-05T09:32:49.780Z,20.54
2023-05-05T09:35:18.348Z,20.53
2023-05-05T09:37:45.279Z,20.61
2023-05-05T09:40:14.324Z,20.70
2023-05-05T09:42:41.819Z,20.73
2023-05-05T09:45:17.425Z,20.80
2023-05-05T09:47:48.413Z,20.83
2023-05-05T09:50:18.684Z,20.86
2023-05-05T09:52:59.943Z,20.85
2023-05-05T09:55:26.670Z,20.89
2023-05-05T09:57:53.704Z,21.04
2023-05-05T10:00:20.793Z,21.16
2023-05-05T10:02:47.593Z,21.16
2023-05-05T10:05:16.955Z,21.21
2023-05-05T10:07:45.828Z,21.23
2023-05-05T10:10:14.456Z,21.21
2023-05-05T10:12:41.236Z,21.14
2023-05-05T10:15:09.871Z,20.99
2023-05-05T10:18:05.798Z,20.88
2023-05-05T10:20:36.958Z,20.88
2023-05-05T10:23:07.285Z,20.88
2023-05-05T10:25:42.131Z,20.95
2023-05-05T10:28:11.866Z,21.05
2023-05-05T10:30:44.981Z,21.03
2023-05-05T10:33:31.922Z,21.05
2023-05-05T10:36:02.426Z,21.01
2023-05-05T10:38:31.027Z,21.00
2023-05-05T10:41:02.137Z,21.05
2023-05-05T10:43:31.366Z,21.16
2023-05-05T10:45:59.114Z,21.18
2023-05-05T10:48:40.594Z,21.25
2023-05-05T10:51:07.344Z,21.39
2023-05-05T10:53:44.811Z,21.42
2023-05-05T10:56:19.796Z,21.52
2023-05-05T10:58:58.924Z,21.60
2023-05-05T11:01:34.192Z,21.69
2023-05-05T11:04:20.427Z,21.69
2023-05-05T11:07:11.772Z,21.68
2023-05-05T11:09:55.753Z,21.74
2023-05-05T11:12:22.705Z,21.75
2023-05-05T11:15:24.286Z,21.82
2023-05-05T11:17:51.348Z,21.88
2023-05-05T11:20:18.537Z,21.97
2023-05-05T11:23:03.602Z,21.97
2023-05-05T11:25:36.478Z,21.89
2023-05-05T11:28:09.184Z,21.86
2023-05-05T11:30:59.377Z,21.88
2023-05-05T11:33:33.789Z,21.94
2023-05-05T11:36:08.140Z,22.05
2023-05-05T11:38:56.736Z,22.05
2023-05-05T11:41:32.479Z,22.07
2023-05-05T11:44:12.764Z,22.15
2023-05-05T11:47:02.508Z,22.22
2023-05-05T11:49:33.048Z,22.26
2023-05-05T11:52:12.908Z,22.31
2023-05-05T11:54:41.755Z,22.38
2023-05-05T11:57:09.078Z,22.40
2023-05-05T11:59:37.700Z,22.36
2023-05-05T12:02:04.702Z,22.39
2023-05-05T12:04:32.155Z,22.37
2023-05-05T12:06:59.864Z,22.37
2023-05-05T12:09:27.299Z,22.35
2023-05-05T12:11:55.876Z,22.31
2023-05-05T12:14:23.409Z,22.32
2023-05-05T12:17:17.307Z,22.34
2023-05-05T12:19:55.315Z,22.34
2023-05-05T12:22:27.030Z,22.31
2023-05-05T12:25:02.889Z,22.29
2023-05-05T12:27:30.025Z,22.29
2023-05-05T12:30:10.272Z,22.35
2023-05-05T12:32:37.140Z,22.45
2023-05-05T12:35:04.414Z,22.49
2023-05-05T12:37:31.433Z,22.49
2023-05-05T12:39:58.230Z,22.48
2023-05-05T12:42:25.019Z,22.45
2023-05-05T12:44:52.225Z,22.40
2023-05-05T12:47:32.719Z,22.43
2023-05-05T12:50:00.666Z,22.51
2023-05-05T12:52:44.785Z,22.56
2023-05-05T12:55:12.071Z,22.52
2023-05-05T12:57:39.700Z,22.51
2023-05-05T13:00:17.893Z,22.51
2023-05-05T13:02:44.724Z,22.68
2023-05-05T13:05:11.461Z,22.70
2023-05-05T13:07:50.337Z,22.77
2023-05-05T13:10:17.071Z,22.78
2023-05-05T13:12:43.765Z,22.77
2023-05-05T13:15:11.274Z,22.73
2023-05-05T13:17:37.991Z,22.69
2023-05-05T13:20:06.608Z,22.64
2023-05-05T13:22:33.223Z,22.63
2023-05-05T13:24:59.856Z,22.59
2023-05-05T13:27:27.076Z,22.57
2023-05-05T13:29:53.782Z,22.60
2023-05-05T13:32:20.424Z,22.60
2023-05-05T13:34:47.154Z,22.56
2023-05-05T13:37:14.528Z,22.52
2023-05-05T13:39:41.145Z,22.45
2023-05-05T13:42:07.779Z,22.44
2023-05-05T13:44:35.390Z,22.51
2023-05-05T13:47:02.195Z,22.63
2023-05-05T13:49:28.919Z,22.72
2023-05-05T13:51:56.350Z,22.84
2023-05-05T13:54:23.178Z,22.79
2023-05-05T13:56:49.799Z,22.76
2023-05-05T13:59:16.457Z,22.77
2023-05-05T14:01:43.105Z,22.81
2023-05-05T14:04:09.821Z,22.89
2023-05-05T14:06:36.574Z,22.96
2023-05-05T14:09:05.841Z,23.16
2023-05-05T14:11:32.830Z,23.28
2023-05-05T14:13:59.672Z,23.28
2023-05-05T14:16:26.320Z,23.25
2023-05-05T14:18:53.116Z,23.31
2023-05-05T14:21:19.777Z,23.41
2023-05-05T14:23:46.593Z,23.49
2023-05-05T14:26:13.182Z,23.53
2023-05-05T14:28:40.008Z,23.51
2023-05-05T14:31:06.873Z,23.60
2023-05-05T14:33:33.574Z,23.61
2023-05-05T14:36:00.249Z,23.69
2023-05-05T14:38:26.995Z,23.68
2023-05-05T14:40:53.677Z,23.68
2023-05-05T14:43:20.791Z,23.73
2023-05-05T14:45:47.471Z,23.70
2023-05-05T14:48:14.236Z,23.73
2023-05-05T14:50:42.450Z,23.73
2023-05-05T14:53:09.184Z,23.67
2023-05-05T14:55:35.811Z,23.75
2023-05-05T14:58:02.469Z,23.78
2023-05-05T15:00:29.148Z,23.77
2023-05-05T15:02:57.321Z,23.78
2023-05-05T15:05:24.055Z,23.76
2023-05-05T15:07:50.925Z,23.69
2023-05-05T15:10:19.184Z,23.69
2023-05-05T15:12:47.280Z,23.73
2023-05-05T15:15:13.933Z,23.76
2023-05-05T15:17:41.649Z,23.76
2023-05-05T15:20:08.829Z,23.76
2023-05-05T15:22:35.669Z,23.71
2023-05-05T15:25:02.401Z,23.66
2023-05-05T15:27:30.121Z,23.66
2023-05-05T15:29:56.776Z,23.68
2023-05-05T15:32:23.572Z,23.67
2023-05-05T15:34:50.687Z,23.67
2023-05-05T15:37:17.494Z,23.68
2023-05-05T15:39:44.337Z,23.65
2023-05-05T15:42:11.080Z,23.62
2023-05-05T15:44:37.767Z,23.54
2023-05-05T15:47:05.043Z,23.49
2023-05-05T15:49:31.851Z,23.52
2023-05-05T15:51:58.686Z,23.43
2023-05-05T15:54:25.247Z,23.36
2023-05-05T15:56:52.066Z,23.24
2023-05-05T15:59:19.349Z,23.15
2023-05-05T16:01:46.990Z,23.07
2023-05-05T16:04:14.153Z,22.99
2023-05-05T16:06:41.039Z,22.96
2023-05-05T16:09:07.743Z,22.95
2023-05-05T16:11:34.689Z,22.95
2023-05-05T16:14:01.289Z,23.04
2023-05-05T16:16:28.330Z,23.08
2023-05-05T16:18:55.258Z,23.10
2023-05-05T16:21:21.929Z,23.09
2023-05-05T16:23:48.510Z,23.11
2023-05-05T16:26:15.148Z,23.15
2023-05-05T16:28:41.742Z,23.16
2023-05-05T16:31:10.661Z,23.12
2023-05-05T16:33:40.747Z,23.13
2023-05-05T16:36:09.922Z,23.14
2023-05-05T16:38:36.581Z,23.14
2023-05-05T16:41:03.621Z,23.18
2023-05-05T16:43:30.271Z,23.23
2023-05-05T16:45:56.945Z,23.21
2023-05-05T16:48:23.671Z,23.26
2023-05-05T16:50:50.626Z,23.24
2023-05-05T16:53:17.299Z,23.26
2023-05-05T16:55:43.997Z,23.26
2023-05-05T16:58:10.607Z,23.19
2023-05-05T17:00:37.249Z,23.20
2023-05-05T17:03:03.819Z,23.18
2023-05-05T17:05:30.521Z,23.17
2023-05-05T17:07:57.154Z,23.18
2023-05-05T17:10:23.953Z,23.13
2023-05-05T17:12:50.984Z,23.10
2023-05-05T17:15:17.842Z,23.04
2023-05-05T17:17:44.529Z,22.99
2023-05-05T17:20:11.944Z,22.98
2023-05-05T17:22:38.617Z,22.92
2023-05-05T17:25:05.865Z,22.88
2023-05-05T17:27:32.484Z,22.81
2023-05-05T17:29:59.274Z,22.75
2023-05-05T17:32:26.091Z,22.66
2023-05-05T17:34:52.874Z,22.50
2023-05-05T17:37:19.557Z,22.47
2023-05-05T17:39:46.237Z,22.43
2023-05-05T17:42:13.025Z,22.50
2023-05-05T17:44:39.729Z,22.48
2023-05-05T17:47:07.826Z,22.35
2023-05-05T17:49:34.827Z,22.32
2023-05-05T17:52:01.639Z,22.31
2023-05-05T17:54:28.499Z,22.27
2023-05-05T17:56:55.164Z,22.17
2023-05-05T17:59:21.874Z,22.15
2023-05-05T18:01:48.712Z,22.08
2023-05-05T18:04:15.937Z,22.02
2023-05-05T18:06:42.563Z,21.84
2023-05-05T18:09:11.277Z,21.83
2023-05-05T18:11:38.108Z,21.79
2023-05-05T18:14:04.899Z,21.77
2023-05-05T18:16:31.789Z,21.69
2023-05-05T18:18:58.472Z,21.60
2023-05-05T18:21:25.142Z,21.60
2023-05-05T18:23:57.263Z,21.64
2023-05-05T18:26:28.490Z,21.59
2023-05-05T18:28:55.154Z,21.57
2023-05-05T18:31:22.326Z,21.45
2023-05-05T18:33:48.960Z,21.19
2023-05-05T18:36:16.111Z,21.17
2023-05-05T18:38:42.764Z,21.09
2023-05-05T18:41:09.476Z,21.02
2023-05-05T18:43:36.433Z,20.93
2023-05-05T18:46:03.160Z,20.77
2023-05-05T18:48:30.578Z,20.71
2023-05-05T18:51:01.700Z,20.69
2023-05-05T18:53:30.229Z,20.53
2023-05-05T18:55:57.625Z,20.36
2023-05-05T18:58:24.734Z,20.21
2023-05-05T19:00:51.450Z,20.06
2023-05-05T19:03:19.678Z,19.93
2023-05-05T19:05:46.763Z,19.82
2023-05-05T19:08:13.532Z,19.95
2023-05-05T19:10:40.189Z,20.09
2023-05-05T19:13:07.832Z,20.16
2023-05-05T19:15:34.747Z,20.19
2023-05-05T19:18:01.796Z,20.17
2023-05-05T19:20:31.832Z,20.14
2023-05-05T19:23:03.580Z,20.20
2023-05-05T19:25:31.191Z,20.24
2023-05-05T19:27:58.060Z,20.30
2023-05-05T19:30:25.326Z,20.29
2023-05-05T19:32:52.581Z,20.32
2023-05-05T19:35:19.613Z,20.40
2023-05-05T19:37:46.357Z,20.44
2023-05-05T19:40:13.473Z,20.44
2023-05-05T19:42:40.374Z,20.46
2023-05-05T19:45:08.573Z,20.47
2023-05-05T19:47:36.291Z,20.47
2023-05-05T19:50:03.292Z,20.41
2023-05-05T19:52:30.289Z,20.34
2023-05-05T19:54:57.227Z,20.33
2023-05-05T19:57:23.848Z,20.33
2023-05-05T19:59:50.624Z,20.33
2023-05-05T20:02:17.436Z,20.37
2023-05-05T20:04:44.255Z,20.33
2023-05-05T20:07:11.020Z,20.28
2023-05-05T20:09:37.872Z,20.28
2023-05-05T20:12:04.981Z,20.28
2023-05-05T20:14:32.344Z,20.30
2023-05-05T20:16:59.068Z,20.34
2023-05-05T20:19:25.898Z,20.34
2023-05-05T20:21:52.558Z,20.41
2023-05-05T20:24:19.283Z,20.35
2023-05-05T20:26:46.034Z,20.35
2023-05-05T20:29:14.669Z,20.32
2023-05-05T20:31:41.379Z,20.35
2023-05-05T20:34:08.509Z,20.34
2023-05-05T20:36:35.153Z,20.36
2023-05-05T20:39:01.886Z,20.39
2023-05-05T20:41:28.723Z,20.39
2023-05-05T20:43:55.782Z,20.31
2023-05-05T20:46:22.732Z,20.27
2023-05-05T20:48:49.924Z,20.28
2023-05-05T20:51:16.677Z,20.29
2023-05-05T20:53:43.513Z,20.23
2023-05-05T20:56:10.763Z,20.17
2023-05-05T20:58:37.583Z,20.17
2023-05-05T21:01:04.344Z,20.21
2023-05-05T21:03:31.232Z,20.20
2023-05-05T21:05:57.900Z,20.20
2023-05-05T21:08:24.618Z,20.17
2023-05-05T21:10:51.347Z,20.16
2023-05-05T21:13:18.463Z,20.06
2023-05-05T21:15:45.469Z,20.04
2023-05-05T21:18:12.404Z,19.91
2023-05-05T21:20:39.131Z,19.98
2023-05-05T21:23:06.036Z,19.91
2023-05-05T21:25:32.774Z,19.85
2023-05-05T21:27:59.534Z,19.75
2023-05-05T21:30:26.387Z,19.65
2023-05-05T21:32:53.160Z,19.63
2023-05-05T21:35:20.098Z,19.61
2023-05-05T21:37:47.332Z,19.65
2023-05-05T21:40:16.300Z,19.75
2023-05-05T21:42:43.549Z,19.68
2023-05-05T21:45:11.897Z,19.61
2023-05-05T21:47:39.101Z,19.55
2023-05-05T21:50:06.568Z,19.61
2023-05-05T21:52:33.546Z,19.66
2023-05-05T21:55:00.293Z,19.62
2023-05-05T21:57:27.182Z,19.53
2023-05-05T21:59:53.747Z,19.51
2023-05-05T22:02:20.411Z,19.46
2023-05-05T22:04:48.817Z,19.38
2023-05-05T22:07:15.593Z,19.36
2023-05-05T22:09:43.022Z,19.41
2023-05-05T22:12:09.860Z,19.40
2023-05-05T22:14:36.491Z,19.32
2023-05-05T22:17:03.259Z,19.22
2023-05-05T22:19:29.828Z,19.32
2023-05-05T22:21:58.567Z,19.26
2023-05-05T22:24:25.669Z,19.30
2023-05-05T22:26:52.445Z,19.27
2023-05-05T22:29:19.101Z,19.31
2023-05-05T22:31:45.914Z,19.27
2023-05-05T22:34:12.590Z,19.24
2023-05-05T22:36:39.314Z,19.23
2023-05-05T22:39:06.467Z,19.10
2023-05-05T22:41:33.136Z,18.97
2023-05-05T22:43:59.768Z,18.95
2023-05-05T22:46:26.531Z,18.96
2023-05-05T22:48:54.123Z,18.88
2023-05-05T22:51:20.854Z,18.84
2023-05-05T22:53:47.585Z,18.85
2023-05-05T22:56:14.349Z,18.85
2023-05-05T22:58:41.096Z,18.82
2023-05-05T23:01:08.159Z,18.76
2023-05-05T23:03:34.787Z,18.66
2023-05-05T23:06:01.459Z,18.61
2023-05-05T23:08:28.139Z,18.61
2023-05-05T23:10:55.948Z,18.47
2023-05-05T23:13:22.640Z,18.51
2023-05-05T23:15:49.391Z,18.49
2023-05-05T23:18:15.947Z,18.44
2023-05-05T23:20:42.617Z,18.42
2023-05-05T23:23:09.267Z,18.44
2023-05-05T23:25:36.002Z,18.42
2023-05-05T23:28:02.656Z,18.44
2023-05-05T23:30:29.532Z,18.37
2023-05-05T23:32:57.438Z,18.35
2023-05-05T23:35:24.584Z,18.38
2023-05-05T23:37:51.239Z,18.35
2023-05-05T23:40:17.993Z,18.39
2023-05-05T23:42:44.637Z,18.40
2023-05-05T23:45:11.706Z,18.43
2023-05-05T23:47:38.598Z,18.43
2023-05-05T23:50:06.631Z,18.40
2023-05-05T23:52:33.369Z,18.33
2023-05-05T23:55:00.129Z,18.32
2023-05-05T23:57:26.802Z,18.32
2023-05-05T23:59:53.665Z,18.24
